Time;durP1;ratioP1;P1;durP2;ratioP2;P2;SDS_P1;SDS_P2;PMS_P1;PMS_P2;Temp;Humidity;BMP_temperature;BMP_pressure;BME280_temperature;BME280_humidity;BME280_pressure;Samples;Min_cycle;Max_cycle;Signal;HPM_P1;HPM_P2
2022/07/05 00:01:37;;;;;;;1.90;1.13;;;;;15.30;94500.00;;;;7390151;19;20162;-79
2022/07/05 00:04:11;;;;;;;5.00;1.50;;;;;15.20;94493.00;;;;7392551;19;20149;-80
2022/07/05 00:07:17;;;;;;;6.78;1.50;;;;;15.20;94493.00;;;;7393551;19;20145;-81
2022/07/05 00:09:33;;;;;;;2.47;1.50;;;;;15.20;94482.00;;;;7397943;19;20135;-79
2022/07/05 00:12:01;;;;;;;4.13;1.50;;;;;15.30;94485.00;;;;7391312;19;20559;-80
2022/07/05 00:14:29;;;;;;;3.95;1.50;;;;;15.20;94493.00;;;;7391810;19;20172;-80
2022/07/05 00:17:10;;;;;;;4.07;1.40;;;;;15.30;94484.00;;;;7393109;19;20204;-80
2022/07/05 00:19:39;;;;;;;1.63;1.30;;;;;15.10;94481.00;;;;7396967;19;20128;-79
2022/07/05 00:22:13;;;;;;;1.90;1.40;;;;;15.10;94485.00;;;;7391231;19;20128;-79
2022/07/05 00:24:41;;;;;;;5.90;1.63;;;;;15.00;94477.00;;;;7392229;19;20147;-79
2022/07/05 00:27:09;;;;;;;2.30;1.42;;;;;14.80;94483.00;;;;7391502;19;20492;-79
2022/07/05 00:29:44;;;;;;;7.18;1.40;;;;;14.80;94480.00;;;;7395688;19;20125;-78
2022/07/05 00:32:12;;;;;;;4.55;1.40;;;;;14.80;94473.00;;;;7392832;19;20179;-80
2022/07/05 00:34:40;;;;;;;2.08;1.38;;;;;14.80;94476.00;;;;7395093;19;20607;-80
2022/07/05 00:37:15;;;;;;;2.28;1.63;;;;;15.00;94477.00;;;;7391488;19;20157;-79
2022/07/05 00:39:43;;;;;;;3.47;1.23;;;;;15.00;94481.00;;;;7397373;19;20113;-79
2022/07/05 00:42:11;;;;;;;4.53;1.40;;;;;15.30;94476.00;;;;7393372;19;20502;-81
2022/07/05 00:44:45;;;;;;;3.58;1.35;;;;;15.40;94481.00;;;;7392574;19;20152;-80
2022/07/05 00:47:13;;;;;;;4.13;1.45;;;;;15.30;94476.00;;;;7394000;19;20140;-81
2022/07/05 00:49:43;;;;;;;4.60;1.30;;;;;15.30;94477.00;;;;7396242;19;20124;-80
2022/07/05 00:52:17;;;;;;;5.53;1.30;;;;;15.40;94476.00;;;;7392650;19;20153;-81
2022/07/05 00:54:47;;;;;;;4.68;1.42;;;;;15.50;94476.00;;;;7393944;19;20591;-80
2022/07/05 00:57:16;;;;;;;3.50;1.70;;;;;15.60;94470.00;;;;7395291;19;20137;-79
2022/07/05 00:59:51;;;;;;;2.45;1.38;;;;;15.50;94480.00;;;;7388202;19;20133;-79
2022/07/05 01:02:23;;;;;;;5.70;1.30;;;;;15.70;94484.00;;;;7386932;19;20162;-81
2022/07/05 01:04:58;;;;;;;2.67;1.50;;;;;15.60;94482.00;;;;7387907;19;20174;-79
2022/07/05 01:07:26;;;;;;;3.50;1.35;;;;;15.40;94475.00;;;;7393208;19;20153;-80
2022/07/05 01:09:54;;;;;;;5.43;1.35;;;;;15.30;94478.00;;;;7393188;19;20623;-80
2022/07/05 01:12:28;;;;;;;2.63;1.52;;;;;15.30;94478.00;;;;7391543;19;20152;-79
2022/07/05 01:15:12;;;;;;;2.17;1.30;;;;;15.20;94475.00;;;;7391194;19;20144;-80
2022/07/05 01:17:46;;;;;;;2.10;1.50;;;;;15.00;94486.00;;;;7392079;19;20603;-81
2022/07/05 01:20:14;;;;;;;1.73;1.30;;;;;14.80;94478.00;;;;7394850;19;20120;-79
2022/07/05 01:22:55;;;;;;;2.08;1.20;;;;;14.60;94482.00;;;;7394619;19;20153;-80
2022/07/05 01:25:30;;;;;;;2.20;1.60;;;;;14.80;94487.00;;;;7388479;19;20587;-81
2022/07/05 01:27:59;;;;;;;3.13;1.40;;;;;14.90;94489.00;;;;7391777;19;20122;-79
2022/07/05 01:30:27;;;;;;;3.55;1.42;;;;;14.80;94492.00;;;;7393434;19;20149;-81
2022/07/05 01:33:02;;;;;;;2.67;1.25;;;;;14.80;94485.00;;;;7393630;19;20621;-81
2022/07/05 01:35:29;;;;;;;1.83;1.30;;;;;14.70;94490.00;;;;7390779;19;20182;-81
2022/07/05 01:37:57;;;;;;;7.45;1.35;;;;;14.80;94485.00;;;;7391704;19;20125;-80
2022/07/05 01:40:31;;;;;;;4.32;1.50;;;;;15.20;94491.00;;;;7392530;19;20656;-82
2022/07/05 01:42:59;;;;;;;6.93;1.50;;;;;15.20;94485.00;;;;7392869;19;20255;-81
2022/07/05 01:45:39;;;;;;;1.95;1.42;;;;;15.00;94487.00;;;;7390216;19;20655;-81
2022/07/05 01:48:15;;;;;;;2.10;1.30;;;;;15.20;94482.00;;;;7393454;19;20591;-80
2022/07/05 01:51:12;;;;;;;2.55;1.40;;;;;15.10;94482.00;;;;7389726;19;20137;-80
2022/07/05 01:53:51;;;;;;;3.35;1.40;;;;;14.80;94479.00;;;;7392824;19;20587;-81
2022/07/05 01:56:18;;;;;;;2.65;1.50;;;;;14.80;94484.00;;;;7387819;19;20117;-80
2022/07/05 01:58:46;;;;;;;4.20;1.50;;;;;15.10;94482.00;;;;7393353;19;20149;-81
2022/07/05 02:01:37;;;;;;;4.13;1.40;;;;;14.90;94478.00;;;;7384697;19;20117;-80
2022/07/05 02:04:07;;;;;;;1.83;1.40;;;;;15.00;94485.00;;;;7391738;19;20492;-79
2022/07/05 02:06:41;;;;;;;2.67;1.40;;;;;15.00;94479.00;;;;7388153;19;20161;-81
2022/07/05 02:09:09;;;;;;;1.83;1.35;;;;;15.00;94478.00;;;;7393126;19;20137;-81
2022/07/05 02:11:37;;;;;;;2.03;1.38;;;;;14.90;94487.00;;;;7389249;19;20169;-81
2022/07/05 02:14:18;;;;;;;2.50;1.50;;;;;15.00;94486.00;;;;7391935;19;20179;-80
2022/07/05 02:16:45;;;;;;;3.05;1.40;;;;;14.90;94484.00;;;;7390721;19;20144;-79
2022/07/05 02:19:19;;;;;;;2.15;1.55;;;;;15.10;94477.00;;;;7393593;19;20125;-80
2022/07/05 02:21:47;;;;;;;4.22;1.60;;;;;15.00;94481.00;;;;7389492;19;20137;-81
2022/07/05 02:24:14;;;;;;;2.67;1.50;;;;;15.00;94480.00;;;;7397763;19;20172;-80
2022/07/05 02:26:50;;;;;;;4.70;1.40;;;;;14.90;94485.00;;;;7392666;19;20152;-81
2022/07/05 02:29:17;;;;;;;2.13;1.67;;;;;14.70;94487.00;;;;7399795;19;20635;-81
2022/07/05 02:31:45;;;;;;;6.97;1.90;;;;;14.60;94483.00;;;;7400409;19;20647;-81
2022/07/05 02:34:19;;;;;;;4.43;1.40;;;;;14.50;94481.00;;;;7398019;19;20136;-80
2022/07/05 02:36:46;;;;;;;1.40;1.27;;;;;14.60;94482.00;;;;7400933;19;20133;-81
2022/07/05 02:39:14;;;;;;;4.95;1.40;;;;;14.50;94486.00;;;;7397270;19;20152;-81
2022/07/05 02:41:48;;;;;;;2.53;1.60;;;;;14.70;94481.00;;;;7400752;19;20612;-80
2022/07/05 02:44:15;;;;;;;3.88;1.30;;;;;14.80;94487.00;;;;7396221;19;20622;-81
2022/07/05 02:46:43;;;;;;;2.00;1.77;;;;;14.70;94481.00;;;;7396135;19;20165;-81
2022/07/05 02:49:17;;;;;;;2.95;1.27;;;;;14.60;94481.00;;;;7399522;19;20149;-81
2022/07/05 02:51:45;;;;;;;2.75;1.35;;;;;14.60;94483.00;;;;7399224;19;20176;-80
2022/07/05 02:54:12;;;;;;;1.35;1.20;;;;;14.70;94484.00;;;;7399422;19;20141;-79
2022/07/05 02:56:49;;;;;;;1.13;1.02;;;;;14.60;94476.00;;;;7397683;19;20174;-81
2022/07/05 02:59:17;;;;;;;3.35;1.48;;;;;14.50;94485.00;;;;7394517;19;20145;-79
2022/07/05 03:01:45;;;;;;;2.72;1.30;;;;;14.50;94491.00;;;;7395321;19;20497;-81
2022/07/05 03:04:19;;;;;;;1.50;1.30;;;;;14.50;94488.00;;;;7398621;19;20148;-80
2022/07/05 03:07:02;;;;;;;2.55;1.40;;;;;14.50;94478.00;;;;7396514;19;20157;-80
2022/07/05 03:09:44;;;;;;;4.65;1.40;;;;;14.50;94481.00;;;;7394086;19;20142;-80
2022/07/05 03:12:11;;;;;;;4.10;1.63;;;;;14.40;94478.00;;;;7393290;19;20648;-79
2022/07/05 03:14:51;;;;;;;3.63;1.10;;;;;14.20;94484.00;;;;7394549;19;20173;-80
2022/07/05 03:17:26;;;;;;;1.52;1.20;;;;;14.30;94493.00;;;;7395438;19;20156;-80
2022/07/05 03:20:00;;;;;;;1.10;1.00;;;;;14.30;94496.00;;;;7395135;19;20507;-79
2022/07/05 03:22:28;;;;;;;1.48;1.38;;;;;14.20;94490.00;;;;7398787;19;20152;-79
2022/07/05 03:24:55;;;;;;;2.03;1.42;;;;;14.10;94492.00;;;;7397087;19;20149;-80
2022/07/05 03:27:29;;;;;;;6.18;1.52;;;;;14.20;94493.00;;;;7396230;19;20137;-80
2022/07/05 03:29:57;;;;;;;2.55;1.13;;;;;14.10;94485.00;;;;7395772;19;20211;-79
2022/07/05 03:32:24;;;;;;;1.33;1.15;;;;;14.10;94491.00;;;;7397401;19;20137;-81
2022/07/05 03:34:58;;;;;;;3.00;1.45;;;;;14.10;94491.00;;;;7395763;19;20137;-81
2022/07/05 03:37:25;;;;;;;2.95;1.20;;;;;14.00;94483.00;;;;7396598;19;20128;-79
2022/07/05 03:39:53;;;;;;;3.20;1.40;;;;;14.30;94495.00;;;;7392870;19;20172;-80
2022/07/05 03:42:27;;;;;;;2.60;1.60;;;;;14.30;94495.00;;;;7397673;19;20121;-80
2022/07/05 03:44:55;;;;;;;3.85;1.30;;;;;14.40;94489.00;;;;7396061;19;20153;-80
2022/07/05 03:47:22;;;;;;;1.27;1.17;;;;;14.40;94493.00;;;;7397253;19;20145;-79
2022/07/05 03:49:56;;;;;;;1.88;1.20;;;;;14.20;94503.00;;;;7394890;19;20133;-80
2022/07/05 03:52:24;;;;;;;5.32;1.33;;;;;14.40;94494.00;;;;7397196;19;20164;-79
2022/07/05 03:54:53;;;;;;;2.28;1.40;;;;;14.30;94504.00;;;;7397676;19;20149;-79
2022/07/05 03:57:27;;;;;;;1.42;1.20;;;;;14.00;94502.00;;;;7396690;19;20564;-80
2022/07/05 03:59:55;;;;;;;2.35;1.25;;;;;13.90;94517.00;;;;7398691;19;20193;-79
2022/07/05 04:02:23;;;;;;;4.93;1.40;;;;;13.80;94513.00;;;;7395242;19;20128;-80
2022/07/05 04:04:57;;;;;;;1.65;1.50;;;;;13.60;94517.00;;;;7396319;19;20148;-80
2022/07/05 04:07:25;;;;;;;2.35;1.50;;;;;13.40;94523.00;;;;7393409;19;20152;-79
2022/07/05 04:09:53;;;;;;;5.07;1.73;;;;;13.30;94522.00;;;;7397696;19;20152;-80
2022/07/05 04:12:27;;;;;;;3.60;1.60;;;;;13.30;94526.00;;;;7389868;19;20144;-80
2022/07/05 04:15:00;;;;;;;6.57;1.92;;;;;13.40;94535.00;;;;7393215;19;20160;-80
2022/07/05 04:17:35;;;;;;;2.38;1.80;;;;;13.60;94526.00;;;;7396181;19;20128;-79
2022/07/05 04:20:03;;;;;;;2.40;1.73;;;;;13.80;94524.00;;;;7393575;19;20149;-81
2022/07/05 04:22:30;;;;;;;3.70;1.90;;;;;14.00;94527.00;;;;7395668;19;20157;-79
2022/07/05 04:25:16;;;;;;;2.85;1.83;;;;;14.30;94534.00;;;;7393560;19;20141;-80
2022/07/05 04:27:52;;;;;;;2.50;1.50;;;;;14.60;94532.00;;;;7392059;19;20141;-80
2022/07/05 04:30:26;;;;;;;4.28;1.63;;;;;14.70;94524.00;;;;7395004;19;20817;-80
2022/07/05 04:32:54;;;;;;;2.20;1.50;;;;;14.80;94531.00;;;;7395256;19;20173;-80
2022/07/05 04:35:22;;;;;;;1.92;1.40;;;;;14.80;94533.00;;;;7395407;19;20212;-80
2022/07/05 04:37:56;;;;;;;3.65;1.65;;;;;14.80;94529.00;;;;7393378;19;20141;-80
2022/07/05 04:40:23;;;;;;;2.72;1.70;;;;;14.80;94529.00;;;;7394953;19;20658;-78
2022/07/05 04:42:51;;;;;;;4.15;1.80;;;;;14.70;94539.00;;;;7395586;19;20150;-80
2022/07/05 04:45:25;;;;;;;1.70;1.52;;;;;14.70;94533.00;;;;7393808;19;20158;-79
2022/07/05 04:47:52;;;;;;;3.22;1.63;;;;;15.00;94541.00;;;;7391420;19;20133;-79
2022/07/05 04:50:20;;;;;;;3.30;1.55;;;;;15.30;94532.00;;;;7385126;19;21667;-80
2022/07/05 04:52:54;;;;;;;1.63;1.20;;;;;15.60;94539.00;;;;7392420;19;20132;-79
2022/07/05 04:55:25;;;;;;;4.45;1.40;;;;;15.70;94535.00;;;;7387978;19;20145;-79
2022/07/05 04:57:53;;;;;;;2.20;1.30;;;;;15.90;94533.00;;;;7388025;19;20136;-79
2022/07/05 05:02:49;;;;;;;3.97;1.58;;;;;16.10;94524.00;;;;6908365;19;9990783;-78
2022/07/05 05:05:23;;;;;;;2.72;1.05;;;;;16.30;94533.00;;;;7426686;19;20151;-78
2022/07/05 05:07:57;;;;;;;2.78;1.40;;;;;16.50;94531.00;;;;7429862;19;20135;-78
2022/07/05 05:10:25;;;;;;;1.00;1.00;;;;;16.80;94524.00;;;;7427946;19;20636;-78
2022/07/05 05:12:53;;;;;;;1.55;1.23;;;;;16.90;94522.00;;;;7427717;19;20171;-77
2022/07/05 05:15:27;;;;;;;2.17;1.30;;;;;17.10;94529.00;;;;7429974;19;20622;-77
2022/07/05 05:17:55;;;;;;;3.33;1.25;;;;;17.20;94533.00;;;;7431217;19;20120;-78
2022/07/05 05:20:23;;;;;;;1.77;1.33;;;;;17.50;94526.00;;;;7428979;19;20192;-79
2022/07/05 05:22:56;;;;;;;4.85;1.23;;;;;17.60;94530.00;;;;7428594;19;20621;-78
2022/07/05 05:25:27;;;;;;;2.13;1.33;;;;;17.60;94528.00;;;;7429160;19;20140;-78
2022/07/05 05:27:54;;;;;;;2.58;1.10;;;;;17.90;94529.00;;;;7430339;19;20127;-78
2022/07/05 05:30:28;;;;;;;1.58;1.33;;;;;18.20;94531.00;;;;7425490;19;20148;-78
2022/07/05 05:32:56;;;;;;;1.80;1.42;;;;;18.30;94533.00;;;;7427425;19;20518;-77
2022/07/05 05:35:24;;;;;;;1.42;1.00;;;;;18.50;94528.00;;;;7429479;19;20654;-77
2022/07/05 05:37:58;;;;;;;3.00;1.25;;;;;18.70;94530.00;;;;7431081;19;20132;-76
2022/07/05 05:40:26;;;;;;;2.13;1.10;;;;;18.90;94537.00;;;;7425657;19;20540;-78
2022/07/05 05:42:56;;;;;;;1.63;1.10;;;;;19.00;94535.00;;;;7427740;19;20156;-79
2022/07/05 05:45:30;;;;;;;1.27;1.10;;;;;19.20;94534.00;;;;7428589;19;20171;-79
2022/07/05 05:47:59;;;;;;;1.65;0.95;;;;;19.20;94538.00;;;;7429131;19;20140;-79
2022/07/05 05:50:29;;;;;;;1.40;0.93;;;;;19.30;94528.00;;;;7424922;19;20579;-79
2022/07/05 05:53:03;;;;;;;0.90;0.90;;;;;19.40;94530.00;;;;7426780;19;20144;-79
2022/07/05 05:55:32;;;;;;;0.90;0.80;;;;;19.60;94546.00;;;;7428464;19;20151;-79
2022/07/05 05:58:12;;;;;;;1.85;0.88;;;;;19.70;94537.00;;;;7430272;19;20124;-79
2022/07/05 06:01:00;;;;;;;1.55;0.90;;;;;19.90;94540.00;;;;7421130;19;20171;-78
2022/07/05 06:03:34;;;;;;;1.40;1.10;;;;;20.10;94544.00;;;;7429204;19;20470;-78
2022/07/05 06:06:08;;;;;;;1.58;1.05;;;;;20.20;94540.00;;;;7426778;19;20203;-76
2022/07/05 06:08:36;;;;;;;0.88;0.88;;;;;20.40;94549.00;;;;7424117;19;20149;-78
2022/07/05 06:11:04;;;;;;;1.67;0.90;;;;;20.40;94550.00;;;;7427729;19;20211;-77
2022/07/05 06:13:38;;;;;;;2.90;1.27;;;;;20.50;94551.00;;;;7401188;19;20449;-78
2022/07/05 06:16:09;;;;;;;1.00;0.90;;;;;20.60;94560.00;;;;7399918;19;20148;-78
2022/07/05 06:18:37;;;;;;;1.85;1.05;;;;;20.80;94556.00;;;;7395434;19;20176;-77
2022/07/05 06:21:11;;;;;;;1.63;0.82;;;;;20.80;94565.00;;;;7398015;19;20154;-78
2022/07/05 06:23:39;;;;;;;2.05;1.10;;;;;20.90;94563.00;;;;7398821;19;20137;-78
2022/07/05 06:26:07;;;;;;;1.58;0.82;;;;;21.00;94570.00;;;;7398195;19;20148;-78
2022/07/05 06:28:41;;;;;;;1.40;0.90;;;;;21.10;94569.00;;;;7395463;19;20139;-78
2022/07/05 06:31:11;;;;;;;2.67;1.00;;;;;21.30;94573.00;;;;7395986;19;20125;-78
2022/07/05 06:33:39;;;;;;;1.75;0.90;;;;;21.50;94569.00;;;;7398289;19;20144;-79
2022/07/05 06:36:13;;;;;;;1.15;0.80;;;;;21.60;94575.00;;;;7399898;19;20659;-79
2022/07/05 06:38:41;;;;;;;1.92;0.98;;;;;21.80;94572.00;;;;7395741;19;20149;-79
2022/07/05 06:41:11;;;;;;;2.22;0.90;;;;;21.70;94576.00;;;;7397777;19;20595;-79
2022/07/05 06:43:48;;;;;;;1.08;0.98;;;;;21.80;94576.00;;;;7398681;19;20129;-78
2022/07/05 06:46:15;;;;;;;1.83;0.88;;;;;21.90;94581.00;;;;7399829;19;20143;-79
2022/07/05 06:48:43;;;;;;;1.25;0.82;;;;;21.90;94586.00;;;;7395571;19;20141;-80
2022/07/05 06:51:20;;;;;;;1.88;1.00;;;;;22.00;94586.00;;;;7395329;19;20636;-79
2022/07/05 06:53:48;;;;;;;0.82;0.82;;;;;22.00;94589.00;;;;7397998;19;20164;-80
2022/07/05 06:56:33;;;;;;;1.90;1.10;;;;;22.00;94593.00;;;;7398267;19;20131;-80
2022/07/05 06:59:15;;;;;;;1.35;1.00;;;;;22.20;94587.00;;;;7391816;19;20145;-79
2022/07/05 07:02:10;;;;;;;6.18;1.33;;;;;21.80;94583.00;;;;7393402;19;20153;-77
2022/07/05 07:04:49;;;;;;;1.70;1.30;;;;;21.80;94589.00;;;;7395462;19;20165;-75
2022/07/05 07:10:33;;;;;;;6.93;1.00;;;;;22.50;94582.00;;;;7394389;19;20141;-78
2022/07/05 07:13:01;;;;;;;7.82;1.20;;;;;22.60;94596.00;;;;7396965;19;20136;-77
2022/07/05 07:15:30;;;;;;;3.08;0.90;;;;;22.80;94585.00;;;;7396800;19;20152;-77
2022/07/05 07:18:11;;;;;;;1.08;0.98;;;;;22.90;94587.00;;;;7399219;19;20148;-79
2022/07/05 07:20:39;;;;;;;4.28;1.00;;;;;22.90;94588.00;;;;7393667;19;20128;-77
2022/07/05 07:23:16;;;;;;;1.98;1.02;;;;;22.60;94600.00;;;;7392899;19;20136;-76
2022/07/05 07:25:44;;;;;;;2.53;1.05;;;;;22.70;94606.00;;;;7392823;19;20502;-78
2022/07/05 07:28:12;;;;;;;1.63;1.02;;;;;23.00;94602.00;;;;7397256;19;20144;-76
2022/07/05 07:30:45;;;;;;;0.98;0.88;;;;;22.70;94597.00;;;;7391182;19;20209;-79
2022/07/05 07:33:13;;;;;;;5.57;1.00;;;;;22.80;94601.00;;;;7396256;19;20149;-78
2022/07/05 07:36:01;;;;;;;1.65;1.08;;;;;22.70;94606.00;;;;7396500;19;20171;-76
2022/07/05 07:38:41;;;;;;;1.85;0.77;;;;;22.90;94600.00;;;;7391253;19;20172;-77
2022/07/05 07:41:09;;;;;;;1.35;1.20;;;;;23.00;94607.00;;;;7391250;19;20129;-79
2022/07/05 07:43:44;;;;;;;2.30;0.75;;;;;23.00;94606.00;;;;7395145;19;20143;-78
2022/07/05 07:46:11;;;;;;;1.33;1.00;;;;;23.10;94608.00;;;;7394057;19;20528;-78
2022/07/05 07:48:39;;;;;;;1.38;1.05;;;;;23.20;94615.00;;;;7392985;19;20512;-78
2022/07/05 07:51:13;;;;;;;1.83;1.30;;;;;23.30;94610.00;;;;7393639;19;20149;-78
2022/07/05 07:53:41;;;;;;;1.15;1.05;;;;;23.00;94617.00;;;;7396441;19;20136;-77
2022/07/05 07:56:15;;;;;;;6.20;1.02;;;;;23.50;94614.00;;;;7397010;19;20149;-79
2022/07/05 07:58:51;;;;;;;2.08;1.20;;;;;23.70;94605.00;;;;7395374;19;20149;-78
2022/07/05 08:01:26;;;;;;;1.50;1.13;;;;;23.90;94614.00;;;;7392668;19;20149;-80
2022/07/05 08:04:14;;;;;;;1.20;1.10;;;;;24.20;94615.00;;;;7399713;19;20484;-76
2022/07/05 08:06:43;;;;;;;1.80;1.30;;;;;24.40;94607.00;;;;7397587;19;20555;-76
2022/07/05 08:09:18;;;;;;;3.13;1.30;;;;;24.20;94626.00;;;;7392059;19;20145;-76
2022/07/05 08:11:47;;;;;;;1.35;1.00;;;;;24.30;94611.00;;;;7393042;19;20133;-77
2022/07/05 08:14:18;;;;;;;1.58;0.82;;;;;24.00;94615.00;;;;7394540;19;20611;-75
2022/07/05 08:16:52;;;;;;;2.53;1.02;;;;;24.10;94622.00;;;;7393113;19;20137;-74
2022/07/05 08:22:13;;;;;;;2.10;1.05;;;;;24.00;94621.00;;;;7396045;19;20729;-80
2022/07/05 08:24:41;;;;;;;3.88;1.00;;;;;24.00;94619.00;;;;7391639;19;20137;-77
2022/07/05 08:27:10;;;;;;;1.23;0.85;;;;;24.30;94628.00;;;;7392911;19;20152;-77
2022/07/05 08:29:45;;;;;;;4.53;1.10;;;;;24.70;94619.00;;;;7394172;19;20152;-78
2022/07/05 08:32:15;;;;;;;1.48;1.25;;;;;24.90;94620.00;;;;7394366;19;20134;-77
2022/07/05 08:34:43;;;;;;;3.72;1.50;;;;;24.80;94623.00;;;;7391474;19;20129;-77
2022/07/05 08:37:17;;;;;;;2.65;0.95;;;;;24.80;94619.00;;;;7392275;19;20135;-78
2022/07/05 08:39:45;;;;;;;1.67;1.10;;;;;24.30;94632.00;;;;7393274;19;20129;-78
2022/07/05 08:42:13;;;;;;;3.90;1.45;;;;;24.50;94615.00;;;;7394389;19;20243;-79
2022/07/05 08:44:50;;;;;;;1.30;1.02;;;;;24.30;94618.00;;;;7391167;19;20144;-80
2022/07/05 08:47:19;;;;;;;3.28;1.10;;;;;24.20;94622.00;;;;7392709;19;20672;-81
2022/07/05 08:49:49;;;;;;;4.15;1.23;;;;;24.40;94627.00;;;;7393641;19;20232;-79
2022/07/05 08:52:25;;;;;;;2.58;1.15;;;;;24.40;94619.00;;;;7394072;19;20155;-81
2022/07/05 08:54:54;;;;;;;2.20;1.00;;;;;24.70;94618.00;;;;7392544;19;20125;-78
2022/07/05 08:57:21;;;;;;;3.28;1.20;;;;;24.80;94612.00;;;;7391409;19;20583;-77
2022/07/05 08:59:55;;;;;;;4.45;0.95;;;;;24.70;94625.00;;;;7391845;19;20147;-78
2022/07/05 09:02:36;;;;;;;3.20;1.08;;;;;24.50;94618.00;;;;7390100;19;20151;-78
2022/07/05 09:05:14;;;;;;;5.05;1.60;;;;;24.10;94631.00;;;;7390350;19;20600;-78
2022/07/05 09:07:51;;;;;;;2.47;1.20;;;;;24.10;94617.00;;;;7392524;19;20144;-75
2022/07/05 09:10:30;;;;;;;3.28;1.33;;;;;24.10;94618.00;;;;7393618;19;20163;-77
2022/07/05 09:12:58;;;;;;;2.28;1.23;;;;;24.40;94633.00;;;;7390803;19;20220;-76
2022/07/05 09:15:32;;;;;;;2.88;0.98;;;;;24.20;94631.00;;;;7390831;19;20155;-76
2022/07/05 09:18:00;;;;;;;2.05;1.20;;;;;24.00;94638.00;;;;7394943;19;20156;-74
2022/07/05 09:20:29;;;;;;;1.10;0.90;;;;;24.10;94635.00;;;;7389350;19;20538;-76
2022/07/05 09:23:03;;;;;;;2.15;1.15;;;;;24.10;94636.00;;;;7390806;19;20594;-74
2022/07/05 09:25:32;;;;;;;5.30;1.42;;;;;24.00;94626.00;;;;7388667;19;20541;-77
2022/07/05 09:28:05;;;;;;;2.60;1.48;;;;;24.40;94628.00;;;;7395147;19;20713;-78
2022/07/05 09:30:41;;;;;;;1.13;1.02;;;;;24.70;94635.00;;;;7391329;19;20588;-78
2022/07/05 09:33:14;;;;;;;1.48;1.15;;;;;24.50;94641.00;;;;7391812;19;20129;-77
2022/07/05 09:35:57;;;;;;;2.15;1.15;;;;;24.50;94640.00;;;;7393080;19;20139;-77
2022/07/05 09:38:28;;;;;;;3.00;1.10;;;;;24.50;94644.00;;;;7389845;19;20196;-78
2022/07/05 09:41:02;;;;;;;5.57;1.20;;;;;24.00;94649.00;;;;7389591;19;20149;-74
2022/07/05 09:43:30;;;;;;;2.53;1.08;;;;;24.30;94643.00;;;;7389462;19;20141;-76
2022/07/05 09:46:03;;;;;;;9.88;2.83;;;;;24.50;94652.00;;;;7391879;19;20149;-75
2022/07/05 09:48:50;;;;;;;3.35;1.13;;;;;24.50;94646.00;;;;7394350;19;20524;-76
2022/07/05 09:51:18;;;;;;;2.22;1.33;;;;;24.40;94643.00;;;;7396686;19;20612;-76
2022/07/05 09:54:11;;;;;;;1.30;1.00;;;;;23.60;94651.00;;;;7398067;19;20149;-78
2022/07/05 09:56:47;;;;;;;2.85;0.98;;;;;24.50;94650.00;;;;7397768;19;20148;-77
2022/07/05 09:59:21;;;;;;;9.68;1.90;;;;;24.80;94641.00;;;;7399517;19;20616;-77
2022/07/05 10:01:56;;;;;;;14.00;2.63;;;;;25.20;94647.00;;;;7399180;19;20156;-78
2022/07/05 10:04:30;;;;;;;2.65;1.30;;;;;25.50;94645.00;;;;7395341;19;20161;-78
2022/07/05 10:06:58;;;;;;;4.05;1.23;;;;;25.70;94646.00;;;;7398272;19;20137;-77
2022/07/05 10:09:27;;;;;;;2.65;1.27;;;;;26.00;94644.00;;;;7399601;19;20137;-77
2022/07/05 10:12:02;;;;;;;1.45;1.10;;;;;26.00;94644.00;;;;7396851;19;20651;-78
2022/07/05 10:14:30;;;;;;;2.08;1.10;;;;;25.30;94638.00;;;;7395251;19;20491;-76
2022/07/05 10:17:01;;;;;;;4.00;1.20;;;;;24.90;94644.00;;;;7396164;19;20198;-77
2022/07/05 10:19:41;;;;;;;4.30;1.20;;;;;25.50;94642.00;;;;7400106;19;20156;-77
2022/07/05 10:22:11;;;;;;;5.40;1.35;;;;;25.60;94649.00;;;;7400404;19;20128;-77
2022/07/05 10:24:47;;;;;;;3.28;1.40;;;;;25.40;94647.00;;;;7398175;19;20128;-78
2022/07/05 10:27:17;;;;;;;3.00;1.60;;;;;25.90;94658.00;;;;7396184;19;20141;-79
2022/07/05 10:29:52;;;;;;;2.05;1.20;;;;;25.30;94647.00;;;;7398818;19;20483;-80
2022/07/05 10:32:25;;;;;;;5.03;1.40;;;;;25.10;94661.00;;;;7397884;19;20140;-76
2022/07/05 10:34:55;;;;;;;1.63;1.10;;;;;25.40;94654.00;;;;7397752;19;20153;-78
2022/07/05 10:37:32;;;;;;;2.53;1.40;;;;;25.30;94645.00;;;;7395104;19;20153;-79
2022/07/05 10:40:06;;;;;;;1.88;1.30;;;;;25.90;94652.00;;;;7396792;19;20208;-77
2022/07/05 10:42:50;;;;;;;3.30;1.23;;;;;25.90;94648.00;;;;7396931;19;20590;-77
2022/07/05 10:45:29;;;;;;;3.58;1.40;;;;;25.70;94638.00;;;;7395518;19;20667;-75
2022/07/05 10:48:14;;;;;;;2.03;1.63;;;;;26.00;94648.00;;;;7396167;19;20148;-76
2022/07/05 10:50:51;;;;;;;4.95;1.45;;;;;26.40;94644.00;;;;7397944;19;20484;-76
2022/07/05 10:53:35;;;;;;;1.65;1.40;;;;;26.20;94644.00;;;;7396178;19;20133;-77
2022/07/05 10:56:03;;;;;;;1.45;1.30;;;;;26.10;94645.00;;;;7396532;19;20148;-77
2022/07/05 10:58:43;;;;;;;3.60;1.17;;;;;26.40;94642.00;;;;7397488;19;20166;-76
2022/07/05 11:01:20;;;;;;;2.80;1.35;;;;;26.20;94642.00;;;;7394122;19;20231;-77
2022/07/05 11:04:09;;;;;;;1.58;1.10;;;;;26.70;94647.00;;;;7393830;19;20488;-76
2022/07/05 11:06:38;;;;;;;4.00;1.40;;;;;26.70;94645.00;;;;7396522;19;20148;-76
2022/07/05 11:09:13;;;;;;;1.88;1.30;;;;;25.00;94670.00;;;;7394192;19;20195;-76
2022/07/05 11:11:47;;;;;;;1.52;1.30;;;;;24.90;94663.00;;;;7395112;19;20137;-77
2022/07/05 11:14:48;;;;;;;3.50;1.42;;;;;24.60;94662.00;;;;7397595;19;20124;-74
2022/07/05 11:17:27;;;;;;;1.83;1.40;;;;;25.40;94661.00;;;;7395824;19;20151;-74
2022/07/05 11:20:32;;;;;;;1.20;1.05;;;;;26.30;94655.00;;;;7396180;19;20132;-77
2022/07/05 11:23:08;;;;;;;3.67;1.50;;;;;26.30;94656.00;;;;7396196;19;20139;-76
2022/07/05 11:25:50;;;;;;;2.20;1.30;;;;;26.20;94650.00;;;;7394792;19;20152;-76
2022/07/05 11:28:22;;;;;;;1.20;1.10;;;;;26.30;94654.00;;;;7395038;19;20133;-78
2022/07/05 11:30:59;;;;;;;3.53;1.70;;;;;26.00;94652.00;;;;7397093;19;20159;-78
2022/07/05 11:33:42;;;;;;;4.63;1.70;;;;;25.90;94646.00;;;;7395116;19;20140;-76
2022/07/05 11:36:27;;;;;;;4.45;1.50;;;;;26.70;94647.00;;;;7389792;19;20457;-75
2022/07/05 11:39:21;;;;;;;3.38;1.30;;;;;27.10;94644.00;;;;7396833;19;20485;-74
2022/07/05 11:41:56;;;;;;;2.25;1.30;;;;;26.20;94651.00;;;;7394181;19;20513;-73
2022/07/05 11:44:24;;;;;;;5.82;1.25;;;;;26.20;94642.00;;;;7395533;19;20139;-77
2022/07/05 11:47:13;;;;;;;1.63;1.02;;;;;25.90;94652.00;;;;7394371;19;20125;-75
2022/07/05 11:49:57;;;;;;;4.97;1.30;;;;;26.30;94638.00;;;;7394919;19;20164;-78
2022/07/05 11:52:35;;;;;;;3.28;1.50;;;;;26.30;94641.00;;;;7392587;19;20148;-76
2022/07/05 11:55:19;;;;;;;1.80;1.20;;;;;26.70;94637.00;;;;7393165;19;20149;-76
2022/07/05 11:57:52;;;;;;;2.13;1.30;;;;;26.80;94635.00;;;;7396452;19;20596;-76
2022/07/05 12:00:35;;;;;;;3.28;1.42;;;;;27.20;94631.00;;;;7395570;19;20163;-76
2022/07/05 12:03:16;;;;;;;3.67;1.48;;;;;27.20;94629.00;;;;7397347;19;20599;-75
2022/07/05 12:05:52;;;;;;;1.92;1.10;;;;;27.00;94622.00;;;;7396269;19;20588;-78
2022/07/05 12:08:24;;;;;;;2.40;1.20;;;;;26.90;94623.00;;;;7394758;19;20136;-76
2022/07/05 12:13:58;;;;;;;4.43;1.70;;;;;27.10;94625.00;;;;7393888;19;20603;-77
2022/07/05 12:16:32;;;;;;;5.63;1.40;;;;;26.90;94622.00;;;;7395259;19;20155;-75
2022/07/05 12:19:01;;;;;;;2.25;1.30;;;;;27.10;94623.00;;;;7393718;19;20145;-74
2022/07/05 12:21:29;;;;;;;2.28;1.35;;;;;27.00;94627.00;;;;7394431;19;20133;-75
2022/07/05 12:24:06;;;;;;;1.52;1.30;;;;;26.70;94620.00;;;;7392061;19;20135;-74
2022/07/05 12:26:37;;;;;;;3.90;1.30;;;;;26.70;94629.00;;;;7394778;19;20136;-76
2022/07/05 12:29:12;;;;;;;2.35;1.42;;;;;26.50;94615.00;;;;7392330;19;20169;-76
2022/07/05 12:32:03;;;;;;;2.45;1.60;;;;;26.70;94626.00;;;;7393775;19;20767;-76
2022/07/05 12:34:37;;;;;;;2.05;1.25;;;;;27.20;94633.00;;;;7393776;19;20133;-76
2022/07/05 12:37:05;;;;;;;3.40;1.30;;;;;26.10;94620.00;;;;7392608;19;20144;-75
2022/07/05 12:39:33;;;;;;;2.70;1.35;;;;;25.70;94624.00;;;;7393282;19;20593;-79
2022/07/05 12:42:08;;;;;;;1.48;1.25;;;;;26.40;94624.00;;;;7391647;19;20497;-77
2022/07/05 12:44:38;;;;;;;2.03;1.40;;;;;26.80;94622.00;;;;7393105;19;20486;-77
2022/07/05 12:47:06;;;;;;;1.10;1.00;;;;;26.30;94621.00;;;;7393517;19;20137;-77
2022/07/05 12:50:00;;;;;;;1.58;1.23;;;;;26.30;94621.00;;;;7392931;19;20129;-79
2022/07/05 12:52:28;;;;;;;2.28;1.05;;;;;26.50;94609.00;;;;7393293;19;20152;-78
2022/07/05 12:58:02;;;;;;;2.67;1.10;;;;;26.20;94619.00;;;;7393272;19;20132;-76
2022/07/05 13:00:37;;;;;;;1.52;1.20;;;;;26.30;94616.00;;;;7390718;19;20480;-76
2022/07/05 13:03:12;;;;;;;1.83;1.05;;;;;25.60;94620.00;;;;7390748;19;20615;-76